Time;durP1;ratioP1;P1;durP2;ratioP2;P2;SDS_P1;SDS_P2;PMS_P1;PMS_P2;Temp;Humidity;BMP_temperature;BMP_pressure;BME280_temperature;BME280_humidity;BME280_pressure;Samples;Min_cycle;Max_cycle;Signal;HPM_P1;HPM_P2
2023/02/12 00:00:52;;;;;;;0.00;0.00;;;;;;;8.63;80.11;102482.00;6176469;23;19989;-82
2023/02/12 00:04:08;;;;;;;0.00;0.00;;;;;;;8.73;79.47;102490.63;6173831;23;20016;-81
2023/02/12 00:06:42;;;;;;;0.00;0.00;;;;;;;8.56;80.02;102471.91;6172937;23;20366;-78
2023/02/12 00:13:33;;;;;;;0.00;0.00;;;;;;;8.77;79.60;102500.09;6084095;23;20489;-84
2023/02/12 00:21:07;;;;;;;;;;;;;;;;;;;;;
2023/02/12 00:24:23;;;;;;;0.00;0.00;;;;;;;8.71;80.22;102496.31;6133597;23;20004;-83
2023/02/12 00:30:34;;;;;;;0.00;0.00;;;;;;;8.70;79.99;102488.31;6026045;23;20071;-82
2023/02/12 00:33:48;;;;;;;;;;;;;;;;;;;;;
2023/02/12 00:48:23;;;;;;;0.00;0.00;;;;;;;8.42;80.07;102445.59;5804348;24;20019;-81
2023/02/12 01:09:57;;;;;;;;;;;;;;;;;;;;;
2023/02/12 01:16:11;;;;;;;;;;;;;;;;;;;;;
2023/02/12 01:19:23;;;;;;;0.00;0.00;;;;;;;8.44;80.83;102457.19;6036270;23;20007;-80
2023/02/12 01:23:12;;;;;;;;;;;;;;;;;;;;;
2023/02/12 01:30:00;;;;;;;0.00;0.00;;;;;;;8.53;80.88;102477.75;5937431;23;20043;-80
2023/02/12 01:33:25;;;;;;;;;;;;;;;;;;;;;
2023/02/12 01:36:54;;;;;;;;;;;;;;;;;;;;;
2023/02/12 01:39:37;;;;;;;0.00;0.00;;;;;;;8.20;80.73;102420.31;6059131;23;20038;-81
2023/02/12 01:42:42;;;;;;;;;;;;;;;;;;;;;
2023/02/12 01:45:45;;;;;;;;;;;;;;;8.50;80.62;102478.19;6078628;23;20006;-82
2023/02/12 01:48:35;;;;;;;0.00;0.00;;;;;;;8.50;80.79;102467.25;6077148;23;19907;-80
2023/02/12 01:54:37;;;;;;;0.00;0.00;;;;;;;8.33;80.49;102449.53;6228805;23;20082;-78
2023/02/12 02:10:30;;;;;;;;;;;;;;;;;;;;;
2023/02/12 02:17:01;;;;;;;;;;;;;;;;;;;;;
2023/02/12 02:30:15;;;;;;;0.00;0.00;;;;;;;8.35;80.99;102480.13;6254685;22;20035;-79
2023/02/12 02:33:49;;;;;;;;;;;;;;;;;;;;;
2023/02/12 02:36:54;;;;;;;;;;;;;;;;;;;;;
2023/02/12 02:39:37;;;;;;;0.00;0.00;;;;;;;8.23;81.21;102451.78;6252197;22;20028;-78
2023/02/12 02:42:48;;;;;;;;;;;;;;;;;;;;;
2023/02/12 02:45:38;;;;;;;0.00;0.00;;;;;;;8.29;81.31;102470.88;6234950;22;20044;-79
2023/02/12 02:51:28;;;;;;;0.00;0.00;;;;;;;8.25;81.36;102463.31;6236548;23;20075;-81
2023/02/12 02:54:34;;;;;;;0.00;0.00;;;;;;;8.30;81.09;102466.28;6216243;22;20477;-78
2023/02/12 02:57:24;;;;;;;0.00;0.00;;;;;;;8.29;81.44;102459.13;6080126;23;20030;-78
2023/02/12 03:00:15;;;;;;;0.00;0.00;;;;;;;8.25;81.29;102457.84;6076441;23;20038;-79
2023/02/12 03:09:45;;;;;;;;;;;;;;;;;;;;;
2023/02/12 03:12:38;;;;;;;;;;;;;;;;;;;;;
2023/02/12 03:19:40;;;;;;;;;;;;;;;;;;;;;
2023/02/12 03:29:05;;;;;;;0.00;0.00;;;;;;;8.18;81.03;102445.03;6118553;23;20037;-81
2023/02/12 03:32:21;;;;;;;;;;;;;;;;;;;;;
2023/02/12 03:42:10;;;;;;;0.00;0.00;;;;;;;8.08;81.31;102433.66;6136974;23;20041;-79
2023/02/12 03:45:46;;;;;;;0.00;0.00;;;;;;;8.16;81.15;102447.13;6134308;23;20006;-80
2023/02/12 03:49:08;;;;;;;0.00;0.00;;;;;;;8.13;81.15;102447.53;6117559;23;20033;-80
2023/02/12 03:52:00;;;;;;;;;;;;;;;;;;;;;
2023/02/12 03:55:12;;;;;;;0.00;0.00;;;;;;;7.80;80.64;102396.38;6134276;23;19994;-82
2023/02/12 03:58:22;;;;;;;0.00;0.00;;;;;;;7.84;81.23;102397.69;6026928;23;20023;-80
2023/02/12 04:01:53;;;;;;;;;;;;;;;;;;;;;
2023/02/12 04:04:58;;;;;;;0.00;0.00;;;;;;;7.94;81.05;102423.72;6119939;23;20025;-79
2023/02/12 04:07:40;;;;;;;0.00;0.00;;;;;;;7.92;81.47;102425.81;6131741;23;20084;-80
2023/02/12 04:11:02;;;;;;;0.00;0.00;;;;;;;7.73;80.94;102400.94;6110889;23;20386;-80
2023/02/12 04:14:19;;;;;;;0.00;0.00;;;;;;;7.92;81.06;102431.25;6071519;23;20172;-79
2023/02/12 04:17:47;;;;;;;;;;;;;;;;;;;;;
2023/02/12 04:20:40;;;;;;;0.00;0.00;;;;;;;7.96;81.28;102451.63;6017551;23;20114;-79
2023/02/12 04:23:21;;;;;;;0.00;0.00;;;;;;;7.94;80.94;102448.22;6164241;23;20012;-79
2023/02/12 04:29:47;;;;;;;0.00;0.00;;;;;;;7.90;81.30;102455.09;6162508;23;20025;-79
2023/02/12 04:32:24;;;;;;;0.00;0.00;;;;;;;7.65;81.32;102411.97;6160228;23;20001;-78
2023/02/12 04:35:23;;;;;;;0.00;0.00;;;;;;;7.88;81.33;102451.75;6140848;23;20005;-79
2023/02/12 04:38:16;;;;;;;0.00;0.00;;;;;;;7.87;81.12;102456.38;6160909;23;20020;-78
2023/02/12 04:44:15;;;;;;;0.00;0.00;;;;;;;7.71;81.29;102429.41;6224608;23;20008;-79
2023/02/12 04:46:48;;;;;;;0.00;0.00;;;;;;;7.88;81.13;102454.47;6199228;23;20039;-79
2023/02/12 04:49:21;;;;;;;0.00;0.00;;;;;;;7.65;81.25;102420.16;6151795;23;20039;-81
2023/02/12 04:52:12;;;;;;;0.00;0.00;;;;;;;7.79;81.50;102442.88;6202488;23;20043;-81
2023/02/12 04:54:44;;;;;;;0.00;0.00;;;;;;;7.74;81.25;102440.75;6199688;23;20062;-82
2023/02/12 05:03:25;;;;;;;0.00;0.00;;;;;;;7.61;81.40;102430.59;6179559;23;20008;-78
2023/02/12 05:06:02;;;;;;;0.00;0.00;;;;;;;7.60;80.88;102428.06;6200941;23;20062;-80
2023/02/12 05:09:16;;;;;;;0.00;0.00;;;;;;;7.42;81.05;102399.47;6222283;23;20063;-77
2023/02/12 05:12:22;;;;;;;0.00;0.00;;;;;;;7.64;81.41;102454.72;6222153;23;20026;-78
2023/02/12 05:15:27;;;;;;;;;;;;;;;;;;;;;
2023/02/12 05:19:32;;;;;;;;;;;;;;;;;;;;;
2023/02/12 05:27:21;;;;;;;;;;;;;;;;;;;;;
2023/02/12 05:30:04;;;;;;;0.00;0.00;;;;;;;7.64;80.94;102453.88;5942950;23;20028;-78
2023/02/12 05:36:01;;;;;;;;;;;;;;;;;;;;;
2023/02/12 05:39:34;;;;;;;0.00;0.00;;;;;;;7.45;80.85;102426.28;6133731;23;20354;-78
2023/02/12 05:42:34;;;;;;;0.00;0.00;;;;;;;7.56;81.56;102437.69;6124074;23;20106;-78
2023/02/12 05:45:50;;;;;;;;;;;;;;;;;;;;;
2023/02/12 05:48:41;;;;;;;0.00;0.00;;;;;;;7.59;81.21;102438.09;6116416;23;20041;-77
2023/02/12 05:51:23;;;;;;;0.00;0.00;;;;;;;7.56;81.28;102443.13;6099317;23;20025;-78
2023/02/12 05:54:02;;;;;;;0.00;0.00;;;;;;;7.43;81.17;102427.50;6081924;23;20014;-78
2023/02/12 05:57:00;;;;;;;0.00;0.00;;;;;;;7.54;81.19;102445.22;6103502;23;20006;-78
2023/02/12 06:00:02;;;;;;;0.00;0.00;;;;;;;7.42;81.15;102421.22;6164978;23;20008;-78
2023/02/12 06:02:37;;;;;;;0.00;0.00;;;;;;;7.46;81.03;102422.53;6198954;23;20016;-78
2023/02/12 06:08:25;;;;;;;0.00;0.00;;;;;;;7.49;80.98;102433.03;6163536;23;20029;-78
2023/02/12 06:11:23;;;;;;;;;;;;;;;;;;;;;
2023/02/12 06:14:23;;;;;;;;;;;;;;;;;;;;;
2023/02/12 06:17:44;;;;;;;0.00;0.00;;;;;;;7.49;81.30;102432.16;6232295;23;20031;-78
2023/02/12 06:20:31;;;;;;;;;;;;;;;;;;;;;
2023/02/12 06:26:34;;;;;;;0.00;0.00;;;;;;;7.26;80.75;102391.56;6218788;23;20012;-78
2023/02/12 06:29:08;;;;;;;0.00;0.00;;;;;;;7.44;81.14;102423.75;6227595;23;20047;-78
2023/02/12 06:32:14;;;;;;;;;;;;;;;;;;;;;
2023/02/12 06:41:10;;;;;;;0.00;0.00;;;;;;;7.36;80.68;102416.59;6128511;23;20013;-80
2023/02/12 06:43:36;;;;;;;0.00;0.00;;;;;;;7.32;80.44;102409.84;6228538;23;20000;-78
2023/02/12 06:46:36;;;;;;;0.00;0.00;;;;;;;7.23;80.45;102389.22;6226583;23;20520;-78
2023/02/12 06:49:04;;;;;;;0.00;0.00;;;;;;;7.33;80.50;102416.97;6231212;23;20004;-78
2023/02/12 06:52:13;;;;;;;0.00;0.00;;;;;;;7.21;80.23;102394.03;6231403;23;20008;-78
2023/02/12 06:54:38;;;;;;;0.00;0.00;;;;;;;7.31;80.56;102413.59;6258035;22;20022;-78
2023/02/12 06:57:08;;;;;;;0.00;0.00;;;;;;;7.30;80.25;102409.16;6235488;23;20008;-77
2023/02/12 06:59:37;;;;;;;0.00;0.00;;;;;;;7.29;80.36;102415.69;6229713;23;20031;-77
2023/02/12 07:02:28;;;;;;;0.00;0.00;;;;;;;7.40;80.13;102438.78;6229199;23;20037;-78
2023/02/12 07:04:53;;;;;;;0.00;0.00;;;;;;;7.09;79.80;102394.53;6135057;23;20634;-78
2023/02/12 07:10:48;;;;;;;0.00;0.00;;;;;;;7.26;79.67;102421.50;6140869;23;20013;-78
2023/02/12 07:13:39;;;;;;;0.00;0.00;;;;;;;7.36;79.49;102432.91;6255376;22;20059;-78
2023/02/12 07:16:14;;;;;;;0.00;0.00;;;;;;;7.30;79.48;102417.34;6228176;23;20010;-77
2023/02/12 07:18:51;;;;;;;0.00;0.00;;;;;;;7.20;79.09;102401.34;6226797;23;19999;-77
2023/02/12 07:22:07;;;;;;;;;;;;;;;;;;;;;
2023/02/12 07:31:45;;;;;;;;;;;;;;;;;;;;;
2023/02/12 07:34:54;;;;;;;0.00;0.00;;;;;;;7.42;78.55;102429.41;6132790;23;19947;-77
2023/02/12 07:40:59;;;;;;;;;;;;;;;;;;;;;
2023/02/12 07:43:44;;;;;;;;;;;;;;;;;;;;;
2023/02/12 07:47:09;;;;;;;0.00;0.00;;;;;;;7.28;77.47;102403.09;6214348;23;20032;-78
2023/02/12 07:50:09;;;;;;;0.00;0.00;;;;;;;7.54;76.91;102434.31;6153331;23;20007;-77
2023/02/12 07:52:54;;;;;;;;;;;;;;;;;;;;;
2023/02/12 07:55:55;;;;;;;;;;;;;;;;;;;;;
2023/02/12 08:05:15;;;;;;;0.00;0.00;;;;;;;7.64;75.67;102402.97;6214394;23;19998;-77
2023/02/12 08:08:43;;;;;;;;;;;;;;;;;;;;;
2023/02/12 08:11:29;;;;;;;0.00;0.00;;;;;;;7.95;75.43;102436.31;6252826;23;20031;-77
2023/02/12 08:20:26;;;;;;;0.00;0.00;;;;;;;8.20;74.75;102434.75;6130040;23;20199;-79
2023/02/12 08:23:00;;;;;;;0.00;0.00;;;;;;;8.41;74.05;102456.69;6108700;23;20401;-81
2023/02/12 08:25:27;;;;;;;0.00;0.00;;;;;;;8.46;74.19;102462.44;6105097;23;20048;-79
2023/02/12 08:27:55;;;;;;;0.00;0.00;;;;;;;8.44;73.98;102451.72;6134384;23;20005;-77
2023/02/12 08:30:30;;;;;;;0.00;0.00;;;;;;;8.42;73.51;102434.66;6132224;23;20076;-77
2023/02/12 08:33:22;;;;;;;0.00;0.00;;;;;;;8.43;73.62;102422.72;6199591;23;20016;-77
2023/02/12 08:35:58;;;;;;;0.00;0.00;;;;;;;8.75;73.40;102464.03;6223096;23;20004;-79
2023/02/12 08:38:27;;;;;;;0.00;0.00;;;;;;;8.75;73.54;102458.56;6225791;23;20000;-80
2023/02/12 08:40:52;;;;;;;0.00;0.00;;;;;;;8.84;73.37;102462.78;6196529;23;20418;-78
2023/02/12 08:44:05;;;;;;;0.00;0.00;;;;;;;9.01;72.67;102468.72;6173536;23;20138;-78
2023/02/12 08:47:14;;;;;;;0.00;0.00;;;;;;;8.95;72.74;102435.94;6180235;23;19988;-77
2023/02/12 08:49:51;;;;;;;0.00;0.00;;;;;;;9.18;72.46;102463.72;6105549;23;20021;-79
2023/02/12 08:52:35;;;;;;;;;;;;;;;;;;;;;
2023/02/12 08:55:49;;;;;;;0.00;0.00;;;;;;;9.34;72.12;102472.56;6214462;23;20036;-80
2023/02/12 08:58:27;;;;;;;0.00;0.00;;;;;;;9.40;71.50;102469.00;6223097;23;20000;-78
2023/02/12 09:01:26;;;;;;;0.00;0.00;;;;;;;9.43;71.49;102463.13;6251850;23;20003;-79
2023/02/12 09:03:54;;;;;;;0.00;0.00;;;;;;;9.40;70.28;102436.22;6248901;23;20016;-78
2023/02/12 09:09:13;;;;;;;0.00;0.00;;;;;;;9.81;69.54;102470.69;6230379;23;20000;-81
2023/02/12 09:11:49;;;;;;;0.00;0.00;;;;;;;9.92;69.51;102461.03;6222223;23;20562;-79
2023/02/12 09:14:22;;;;;;;0.00;0.00;;;;;;;9.98;69.61;102456.63;6226390;23;19988;-76
2023/02/12 09:17:11;;;;;;;0.00;0.00;;;;;;;10.07;69.27;102466.25;6224809;23;20000;-79
2023/02/12 09:19:36;;;;;;;0.00;0.00;;;;;;;10.20;69.19;102449.00;6199086;23;20012;-78
2023/02/12 09:22:09;;;;;;;0.00;0.00;;;;;;;10.33;68.60;102448.97;6222427;23;20050;-77
2023/02/12 09:24:36;;;;;;;0.00;0.00;;;;;;;10.57;67.44;102469.34;6194860;23;20757;-80
2023/02/12 09:27:11;;;;;;;0.00;0.00;;;;;;;10.47;67.15;102436.13;6201383;23;20015;-81
2023/02/12 09:29:48;;;;;;;0.00;0.00;;;;;;;10.75;67.05;102456.84;6204081;23;20042;-78
2023/02/12 09:32:25;;;;;;;0.00;0.00;;;;;;;10.78;66.59;102434.53;6198636;23;19992;-78
2023/02/12 09:34:50;;;;;;;0.00;0.00;;;;;;;11.07;66.65;102451.38;6222376;23;20149;-77
2023/02/12 09:37:19;;;;;;;0.00;0.00;;;;;;;11.21;66.19;102461.22;6222692;23;20464;-77
2023/02/12 09:39:45;;;;;;;0.00;0.00;;;;;;;11.24;65.89;102444.31;6198782;23;20015;-77
2023/02/12 09:42:16;;;;;;;0.00;0.00;;;;;;;11.27;65.97;102449.38;6200221;23;20008;-79
2023/02/12 09:44:53;;;;;;;0.00;0.00;;;;;;;11.26;65.30;102436.75;6224224;23;20030;-80
2023/02/12 09:47:42;;;;;;;0.00;0.00;;;;;;;11.50;64.60;102457.00;6222504;23;20011;-77
2023/02/12 09:57:18;;;;;;;0.00;0.00;;;;;;;11.37;63.07;102442.56;6106209;23;20097;-75
2023/02/12 10:00:30;;;;;;;0.00;0.00;;;;;;;11.16;63.43;102436.41;6210650;23;20686;-77
2023/02/12 10:20:51;;;;;;;;;;;;;;;;;;;;;
2023/02/12 10:26:48;;;;;;;;;;;;;;;;;;;;;
2023/02/12 10:30:23;;;;;;;0.00;0.00;;;;;;;10.76;63.56;102453.03;6069132;23;20050;-77
2023/02/12 10:37:10;;;;;;;0.00;0.00;;;;;;;10.72;62.46;102435.38;6129862;23;20100;-76
2023/02/12 10:40:22;;;;;;;0.00;0.00;;;;;;;10.98;62.99;102484.53;6208570;22;20000;-77
2023/02/12 10:43:18;;;;;;;0.00;0.00;;;;;;;10.87;62.69;102481.63;6204171;23;20011;-77
2023/02/12 10:46:08;;;;;;;0.00;0.00;;;;;;;10.83;63.04;102464.78;6203167;23;20003;-75
2023/02/12 10:48:59;;;;;;;0.00;0.00;;;;;;;11.14;62.56;102487.78;6222500;23;20421;-76
2023/02/12 10:51:56;;;;;;;0.00;0.00;;;;;;;11.17;62.10;102492.84;6209018;23;20019;-77
2023/02/12 10:54:37;;;;;;;0.00;0.00;;;;;;;11.08;62.33;102484.06;6129016;23;20010;-79
2023/02/12 10:57:16;;;;;;;0.00;0.00;;;;;;;10.98;62.50;102468.09;6225395;23;20015;-77
2023/02/12 10:59:43;;;;;;;0.00;0.00;;;;;;;11.16;62.87;102485.69;6217851;23;20035;-76
2023/02/12 11:02:20;;;;;;;0.00;0.00;;;;;;;11.28;62.60;102489.38;6222379;23;20424;-75
2023/02/12 11:04:59;;;;;;;0.00;0.00;;;;;;;11.38;61.86;102488.91;6219673;23;20015;-75
2023/02/12 11:07:54;;;;;;;;;;;;;;;;;;;;;
2023/02/12 11:10:45;;;;;;;0.00;0.00;;;;;;;11.50;62.00;102475.34;6247239;23;20075;-77
2023/02/12 11:13:44;;;;;;;;;;;;;;;;;;;;;
2023/02/12 11:16:21;;;;;;;;;;;;;;;;;;;;;
2023/02/12 11:22:29;;;;;;;0.00;0.00;;;;;;;11.06;61.64;102457.94;6159246;23;20013;-77
2023/02/12 11:25:36;;;;;;;0.00;0.00;;;;;;;10.86;61.87;102436.97;6156131;23;20013;-78
2023/02/12 11:43:07;;;;;;;;;;;;;;;;;;;;;
2023/02/12 11:46:29;;;;;;;0.00;0.00;;;;;;;11.45;62.00;102461.50;6014834;23;20050;-79
2023/02/12 11:49:01;;;;;;;0.00;0.00;;;;;;;11.48;62.22;102450.09;6011007;23;20019;-76
2023/02/12 11:55:39;;;;;;;0.00;0.00;;;;;;;11.19;62.28;102435.94;5970592;23;20060;-75
2023/02/12 12:02:34;;;;;;;;;;;;;;;;;;;;;
2023/02/12 12:06:06;;;;;;;;;;;;;;;;;;;;;
2023/02/12 12:09:37;;;;;;;0.00;0.00;;;;;;;10.54;62.93;102417.78;6169400;23;20040;-78
2023/02/12 12:12:08;;;;;;;0.00;0.00;;;;;;;10.31;64.05;102418.25;6216290;23;20019;-76
2023/02/12 12:25:38;;;;;;;0.00;0.00;;;;;;;9.86;66.42;102420.91;6072029;23;20159;-76
2023/02/12 12:28:32;;;;;;;;;;;;;;;;;;;;;
2023/02/12 12:35:49;;;;;;;;;;;;;;;;;;;;;
2023/02/12 12:38:44;;;;;;;0.00;0.00;;;;;;;10.35;66.99;102424.16;6111816;23;20053;-78
2023/02/12 12:41:47;;;;;;;0.00;0.00;;;;;;;10.37;66.18;102422.06;6088420;23;20006;-75
2023/02/12 12:44:49;;;;;;;0.00;0.00;;;;;;;10.36;66.49;102414.91;6097934;23;20017;-76
2023/02/12 12:47:34;;;;;;;0.00;0.00;;;;;;;10.28;66.63;102416.78;6091780;23;20089;-75
2023/02/12 13:04:16;;;;;;;0.00;0.00;;;;;;;9.91;68.23;102399.22;6165119;23;20013;-77
2023/02/12 13:07:27;;;;;;;;;;;;;;;;;;;;;
2023/02/12 13:10:09;;;;;;;0.00;0.00;;;;;;;9.98;68.12;102374.63;6248454;23;20012;-75
2023/02/12 13:12:46;;;;;;;0.00;0.00;;;;;;;10.04;68.61;102384.69;6219540;23;20084;-75
2023/02/12 13:15:35;;;;;;;0.00;0.00;;;;;;;10.01;68.56;102379.66;6249629;23;20035;-76
2023/02/12 13:18:12;;;;;;;0.00;0.00;;;;;;;10.09;68.19;102376.66;6223054;23;20004;-77
2023/02/12 13:20:56;;;;;;;0.00;0.00;;;;;;;10.01;68.45;102363.25;6220497;23;20000;-77
2023/02/12 13:23:37;;;;;;;0.00;0.00;;;;;;;10.06;67.84;102369.75;6223689;23;20003;-77
2023/02/12 13:26:21;;;;;;;0.00;0.00;;;;;;;10.02;67.70;102364.94;6245282;23;20011;-77
2023/02/12 13:28:59;;;;;;;0.00;0.00;;;;;;;9.95;67.28;102365.78;6223339;23;19996;-76
2023/02/12 13:31:29;;;;;;;0.00;0.00;;;;;;;9.86;67.78;102341.66;6248406;22;20012;-77
2023/02/12 13:34:12;;;;;;;0.00;0.00;;;;;;;9.76;67.64;102339.34;6217471;23;20312;-77
2023/02/12 13:36:38;;;;;;;0.00;0.00;;;;;;;10.01;67.50;102352.31;6222680;23;20008;-78
2023/02/12 13:39:15;;;;;;;0.00;0.00;;;;;;;10.14;67.30;102353.09;6217824;23;20015;-77
2023/02/12 13:42:04;;;;;;;0.00;0.00;;;;;;;10.19;66.20;102346.16;6223319;23;20110;-78
2023/02/12 13:44:35;;;;;;;0.00;0.00;;;;;;;10.04;66.58;102340.97;6218964;23;20004;-76
2023/02/12 13:47:13;;;;;;;0.00;0.00;;;;;;;9.92;66.80;102324.38;6221927;23;19984;-77
2023/02/12 13:49:53;;;;;;;0.00;0.00;;;;;;;10.09;67.19;102354.81;6219247;23;20051;-78
2023/02/12 13:52:30;;;;;;;0.00;0.00;;;;;;;10.01;66.73;102330.47;6220342;23;20362;-77
2023/02/12 13:55:37;;;;;;;0.00;0.00;;;;;;;9.95;66.94;102311.13;6219546;23;20004;-78
2023/02/12 13:58:33;;;;;;;0.00;0.00;;;;;;;10.19;66.91;102343.41;6245477;23;20091;-78
2023/02/12 14:01:01;;;;;;;0.00;0.00;;;;;;;10.14;65.74;102331.22;6251741;23;20008;-78
2023/02/12 14:03:28;;;;;;;0.00;0.00;;;;;;;10.16;65.76;102336.47;6223534;23;20418;-77
2023/02/12 14:06:12;;;;;;;0.00;0.00;;;;;;;10.29;65.83;102336.44;6195273;23;20114;-77
2023/02/12 14:08:41;;;;;;;0.00;0.00;;;;;;;10.23;65.56;102340.03;6222181;23;20469;-78
2023/02/12 14:11:11;;;;;;;0.00;0.00;;;;;;;10.09;66.20;102322.84;6223366;23;20087;-78
2023/02/12 14:13:52;;;;;;;0.00;0.00;;;;;;;10.06;65.94;102327.91;6248068;23;20005;-78
2023/02/12 14:16:36;;;;;;;0.00;0.00;;;;;;;9.92;66.40;102310.72;6222373;23;20006;-78
2023/02/12 14:20:02;;;;;;;0.00;0.00;;;;;;;9.93;67.09;102332.38;6223506;23;20007;-77
2023/02/12 14:22:27;;;;;;;0.05;0.05;;;;;;;9.76;66.50;102322.97;6180568;23;20008;-77
2023/02/12 14:24:55;;;;;;;0.00;0.00;;;;;;;9.52;67.45;102308.09;6222410;23;20098;-76
2023/02/12 14:27:32;;;;;;;0.00;0.00;;;;;;;9.39;67.94;102303.50;6220832;23;20016;-76
2023/02/12 14:30:24;;;;;;;0.00;0.00;;;;;;;9.36;68.39;102312.09;6223917;23;20039;-76
2023/02/12 14:32:58;;;;;;;0.00;0.00;;;;;;;9.35;68.74;102304.97;6221184;23;20000;-76
2023/02/12 14:43:22;;;;;;;;;;;;;;;;;;;;;
2023/02/12 14:50:03;;;;;;;;;;;;;;;;;;;;;
2023/02/12 15:00:21;;;;;;;0.00;0.00;;;;;;;9.08;70.89;102285.88;6045907;23;20124;-78
2023/02/12 15:03:07;;;;;;;;;;;;;;;;;;;;;
2023/02/12 15:05:45;;;;;;;0.00;0.00;;;;;;;9.03;70.81;102285.69;6079870;23;20033;-76
2023/02/12 15:08:33;;;;;;;0.00;0.00;;;;;;;8.96;71.16;102284.84;6218835;23;20011;-75
2023/02/12 15:11:36;;;;;;;;;;;;;;;;;;;;;
2023/02/12 15:14:37;;;;;;;0.00;0.00;;;;;;;8.85;72.43;102287.13;6249291;23;20024;-77
2023/02/12 15:21:44;;;;;;;0.00;0.00;;;;;;;8.74;73.51;102293.22;6072720;23;20786;-78
2023/02/12 15:24:47;;;;;;;0.00;0.00;;;;;;;8.64;74.24;102273.69;6147911;23;20012;-76
2023/02/12 15:27:34;;;;;;;0.00;0.00;;;;;;;8.70;74.49;102297.38;6220373;23;20004;-75
2023/02/12 15:31:09;;;;;;;;;;;;;;;;;;;;;
2023/02/12 15:34:26;;;;;;;0.00;0.00;;;;;;;8.27;75.20;102265.00;6244572;23;20061;-76
2023/02/12 15:37:32;;;;;;;0.05;0.05;;;;;;;8.14;75.94;102261.16;6224043;23;20012;-75
2023/02/12 15:40:52;;;;;;;;;;;;;;;;;;;;;
2023/02/12 15:47:26;;;;;;;0.00;0.00;;;;;;;7.80;77.77;102260.19;6055880;23;20446;-77
2023/02/12 15:50:50;;;;;;;0.00;0.00;;;;;;;7.95;78.72;102291.91;6117216;23;20043;-76
2023/02/12 16:16:04;;;;;;;;;;;;;;;;;;;;;
2023/02/12 16:18:52;;;;;;;0.00;0.00;;;;;;;7.90;80.01;102276.19;6043482;23;20042;-77
2023/02/12 16:22:14;;;;;;;;;;;;;;;;;;;;;
2023/02/12 16:36:24;;;;;;;;;;;;;;;;;;;;;
2023/02/12 16:39:59;;;;;;;;;;;;;;;;;;;;;
2023/02/12 16:43:07;;;;;;;;;;;;;;;;;;;;;
2023/02/12 16:46:07;;;;;;;0.00;0.00;;;;;;;7.71;81.57;102250.53;5758519;24;20402;-77
2023/02/12 16:49:28;;;;;;;0.00;0.00;;;;;;;7.60;81.83;102242.94;5798962;24;20147;-76
2023/02/12 16:52:37;;;;;;;0.00;0.00;;;;;;;7.79;81.83;102263.13;6028764;23;20768;-76
2023/02/12 16:55:32;;;;;;;0.00;0.00;;;;;;;7.73;82.03;102264.78;6194937;23;20004;-79
2023/02/12 16:58:31;;;;;;;;;;;;;;;;;;;;;
2023/02/12 17:01:50;;;;;;;;;;;;;;;;;;;;;
2023/02/12 17:11:37;;;;;;;0.00;0.00;;;;;;;7.43;83.04;102226.94;5768217;24;20442;-78
2023/02/12 17:14:05;;;;;;;0.00;0.00;;;;;;;7.42;83.04;102236.13;5761513;24;20405;-79
2023/02/12 17:17:05;;;;;;;0.00;0.00;;;;;;;7.39;83.14;102244.72;5872626;24;20067;-79
2023/02/12 17:20:10;;;;;;;;;;;;;;;;;;;;;
2023/02/12 17:26:00;;;;;;;;;;;;;;;;;;;;;
2023/02/12 17:28:45;;;;;;;0.00;0.00;;;;;;;7.34;84.17;102234.41;6130416;23;20029;-81
2023/02/12 17:31:19;;;;;;;0.00;0.00;;;;;;;7.54;84.26;102265.53;6109278;23;20009;-80
2023/02/12 17:34:31;;;;;;;0.00;0.00;;;;;;;7.55;84.30;102272.63;6195497;23;20039;-76
2023/02/12 17:36:59;;;;;;;0.00;0.00;;;;;;;7.53;84.01;102263.84;6253687;22;20042;-82
2023/02/12 17:43:34;;;;;;;0.00;0.00;;;;;;;7.66;83.86;102280.25;5999417;23;20016;-80
2023/02/12 17:46:52;;;;;;;0.00;0.00;;;;;;;7.48;84.22;102251.66;5883090;24;20039;-82
2023/02/12 17:49:51;;;;;;;;;;;;;;;;;;;;;
2023/02/12 17:52:32;;;;;;;0.00;0.00;;;;;;;7.60;84.26;102275.59;5896322;24;20041;-80
2023/02/12 17:56:22;;;;;;;;;;;;;;;;;;;;;
2023/02/12 18:02:53;;;;;;;;;;;;;;;;;;;;;
2023/02/12 18:09:08;;;;;;;0.00;0.00;;;;;;;7.45;84.89;102262.13;5997724;23;20045;-78
2023/02/12 18:11:34;;;;;;;0.00;0.00;;;;;;;7.63;84.29;102292.38;6101899;23;20017;-79
2023/02/12 18:14:01;;;;;;;0.00;0.00;;;;;;;7.53;84.52;102274.72;6224674;23;20008;-78
2023/02/12 18:16:41;;;;;;;0.00;0.00;;;;;;;7.53;84.45;102280.16;6222209;23;20089;-77
2023/02/12 18:19:13;;;;;;;0.00;0.00;;;;;;;7.55;84.92;102280.78;6224802;23;20083;-80
2023/02/12 18:21:40;;;;;;;0.00;0.00;;;;;;;7.50;84.53;102271.38;6176319;23;20015;-78
2023/02/12 18:24:08;;;;;;;0.00;0.00;;;;;;;7.47;84.85;102274.47;6224550;23;20091;-78
2023/02/12 18:26:33;;;;;;;0.00;0.00;;;;;;;7.57;85.40;102286.91;6226427;23;20014;-78
2023/02/12 18:29:02;;;;;;;0.00;0.00;;;;;;;7.50;85.09;102276.81;6205560;23;20032;-79
2023/02/12 18:31:27;;;;;;;0.00;0.00;;;;;;;7.56;85.17;102286.03;6230526;23;20004;-79
2023/02/12 18:33:53;;;;;;;0.00;0.00;;;;;;;7.54;85.04;102281.84;6224026;23;20024;-79
2023/02/12 18:36:24;;;;;;;0.00;0.00;;;;;;;7.55;85.04;102288.97;6199915;23;20480;-80
2023/02/12 18:38:53;;;;;;;0.00;0.00;;;;;;;7.50;85.10;102281.41;6223498;23;19988;-79
2023/02/12 18:41:48;;;;;;;0.00;0.00;;;;;;;7.55;85.24;102283.53;6204316;23;20086;-82
2023/02/12 18:44:14;;;;;;;0.00;0.00;;;;;;;7.60;85.12;102297.38;6223655;23;20011;-83
2023/02/12 18:46:40;;;;;;;0.00;0.00;;;;;;;7.48;85.17;102273.44;6237509;23;20031;-83
2023/02/12 18:49:13;;;;;;;0.00;0.00;;;;;;;7.54;84.68;102287.31;6230264;23;19980;-83
2023/02/12 18:51:49;;;;;;;0.00;0.00;;;;;;;7.64;84.87;102304.13;6230156;23;20003;-83
2023/02/12 18:54:15;;;;;;;0.00;0.00;;;;;;;7.50;84.91;102276.81;6206048;23;19988;-83
2023/02/12 18:56:47;;;;;;;0.00;0.00;;;;;;;7.49;84.59;102275.13;6232165;23;20069;-84
2023/02/12 18:59:38;;;;;;;0.00;0.00;;;;;;;7.60;85.01;102292.78;6234038;23;20003;-81
2023/02/12 19:02:04;;;;;;;0.00;0.00;;;;;;;7.38;85.07;102259.34;6210302;23;20075;-80
2023/02/12 19:04:30;;;;;;;0.00;0.00;;;;;;;7.67;84.78;102304.53;6230528;22;20048;-85
2023/02/12 19:07:37;;;;;;;0.00;0.00;;;;;;;7.64;84.86;102310.41;6234934;22;20008;-83
2023/02/12 19:10:03;;;;;;;0.00;0.00;;;;;;;7.59;84.52;102295.69;6248243;23;20004;-79
2023/02/12 19:12:28;;;;;;;0.00;0.00;;;;;;;7.66;85.06;102302.03;6253624;23;20011;-74
2023/02/12 19:14:54;;;;;;;0.00;0.00;;;;;;;7.54;84.48;102293.56;6221894;23;20094;-79
2023/02/12 19:17:19;;;;;;;0.00;0.00;;;;;;;7.59;85.10;102301.97;6225630;23;20418;-79
2023/02/12 19:19:50;;;;;;;0.00;0.00;;;;;;;7.49;85.02;102280.56;6224479;23;20003;-79
2023/02/12 19:22:45;;;;;;;0.00;0.00;;;;;;;7.41;84.90;102261.66;6201782;23;20012;-84
2023/02/12 19:25:15;;;;;;;0.00;0.00;;;;;;;7.55;85.43;102288.97;6221073;23;20154;-78
2023/02/12 19:27:43;;;;;;;0.00;0.00;;;;;;;7.58;84.63;102303.03;6228232;23;20015;-79
2023/02/12 19:30:20;;;;;;;0.00;0.00;;;;;;;7.56;85.57;102293.38;6201028;23;20065;-79
2023/02/12 19:32:46;;;;;;;0.00;0.00;;;;;;;7.49;85.69;102286.00;6220128;23;20015;-78
2023/02/12 19:35:32;;;;;;;0.00;0.00;;;;;;;7.46;85.01;102278.25;6225084;23;20019;-78
2023/02/12 19:38:30;;;;;;;;;;;;;;;;;;;;;
2023/02/12 19:41:15;;;;;;;0.00;0.00;;;;;;;7.51;85.14;102272.19;6249568;23;20051;-78
2023/02/12 19:43:41;;;;;;;0.00;0.00;;;;;;;7.46;85.39;102264.66;6224064;23;20008;-82
2023/02/12 19:46:18;;;;;;;0.00;0.00;;;;;;;7.40;85.27;102253.69;6222634;23;20055;-77
2023/02/12 19:48:44;;;;;;;0.00;0.00;;;;;;;7.53;85.53;102270.09;6254055;23;20004;-79
2023/02/12 19:51:18;;;;;;;0.00;0.00;;;;;;;7.36;85.13;102236.94;6220998;23;20074;-79
2023/02/12 19:53:54;;;;;;;0.00;0.00;;;;;;;7.45;85.23;102241.19;6225716;23;20061;-78
2023/02/12 19:56:30;;;;;;;0.00;0.00;;;;;;;7.47;84.76;102249.97;6225150;23;20019;-81
2023/02/12 19:59:09;;;;;;;;;;;;;;;;;;;;;
2023/02/12 20:01:34;;;;;;;0.00;0.00;;;;;;;7.37;85.24;102227.72;6254524;23;20024;-80
2023/02/12 20:04:02;;;;;;;0.00;0.00;;;;;;;7.46;84.99;102242.00;6252915;23;20000;-78
2023/02/12 20:06:42;;;;;;;0.00;0.00;;;;;;;7.54;85.22;102254.63;6220577;23;20008;-78
2023/02/12 20:09:28;;;;;;;0.00;0.00;;;;;;;7.39;85.48;102231.09;6231928;23;20016;-80
2023/02/12 20:12:03;;;;;;;0.00;0.00;;;;;;;7.35;85.66;102235.25;6231288;23;19999;-76
2023/02/12 20:22:25;;;;;;;0.00;0.00;;;;;;;7.50;85.54;102249.59;5937044;24;20022;-77
2023/02/12 20:25:22;;;;;;;0.00;0.00;;;;;;;7.47;85.42;102241.81;5901826;24;20028;-79
2023/02/12 20:28:10;;;;;;;0.00;0.00;;;;;;;7.40;85.29;102226.47;5877104;24;20009;-79
2023/02/12 20:37:46;;;;;;;0.00;0.00;;;;;;;7.33;85.38;102221.03;5851198;24;20538;-77
2023/02/12 21:32:16;;;;;;;;;;;;;;;;;;;;;
2023/02/12 21:34:46;;;;;;;0.00;0.00;;;;;;;7.38;85.01;102255.78;6203099;23;20474;-75
2023/02/12 21:37:17;;;;;;;0.00;0.00;;;;;;;7.26;85.20;102237.28;6170457;23;20087;-75